createdAt,value
2022-11-18T00:01:16.042Z,17.10
2022-11-18T00:05:27.001Z,17.67
2022-11-18T00:07:32.152Z,19.90
2022-11-18T00:09:37.530Z,18.33
2022-11-18T00:11:55.797Z,23.58
2022-11-18T00:14:13.629Z,15.13
2022-11-18T00:18:26.344Z,15.65
2022-11-18T00:20:32.262Z,21.63
2022-11-18T00:22:37.674Z,19.40
2022-11-18T00:24:42.848Z,23.27
2022-11-18T00:26:48.080Z,19.13
2022-11-18T00:28:54.003Z,22.75
2022-11-18T00:31:05.453Z,14.15
2022-11-18T00:33:13.866Z,17.98
2022-11-18T00:35:19.301Z,18.67
2022-11-18T00:37:24.650Z,16.05
2022-11-18T00:39:30.418Z,24.35
2022-11-18T00:41:47.856Z,20.50
2022-11-18T00:43:53.226Z,22.52
2022-11-18T00:45:58.796Z,19.15
2022-11-18T00:48:03.767Z,22.42
2022-11-18T00:50:12.779Z,19.15
2022-11-18T00:52:20.754Z,19.90
2022-11-18T00:54:25.935Z,13.98
2022-11-18T00:56:31.257Z,14.65
2022-11-18T00:58:36.989Z,22.10
2022-11-18T01:00:42.302Z,24.48
2022-11-18T01:02:47.329Z,16.17
2022-11-18T01:04:52.337Z,17.98
2022-11-18T01:07:00.356Z,27.45
2022-11-18T01:09:05.470Z,18.48
2022-11-18T01:11:24.595Z,17.08
2022-11-18T01:13:31.507Z,15.38
2022-11-18T01:15:42.625Z,21.27
2022-11-18T01:17:47.693Z,16.98
2022-11-18T01:19:52.666Z,18.60
2022-11-18T01:22:03.059Z,13.25
2022-11-18T01:24:09.773Z,15.45
2022-11-18T01:26:17.515Z,22.35
2022-11-18T01:28:24.349Z,21.73
2022-11-18T01:30:29.888Z,16.52
2022-11-18T01:32:34.865Z,16.55
2022-11-18T01:34:40.396Z,17.75
2022-11-18T01:36:45.407Z,18.65
2022-11-18T01:38:54.729Z,22.65
2022-11-18T01:41:00.576Z,24.45
2022-11-18T01:43:06.427Z,19.38
2022-11-18T01:45:31.568Z,16.05
2022-11-18T01:47:43.554Z,16.05
2022-11-18T01:49:48.694Z,15.88
2022-11-18T01:51:58.752Z,14.05
2022-11-18T01:54:12.313Z,16.08
2022-11-18T01:56:21.495Z,19.70
2022-11-18T01:58:31.494Z,16.92
2022-11-18T02:00:37.475Z,15.60
2022-11-18T02:02:42.429Z,22.85
2022-11-18T02:04:52.704Z,14.60
2022-11-18T02:06:59.237Z,17.00
2022-11-18T02:09:08.144Z,15.48
2022-11-18T02:11:36.317Z,16.05
2022-11-18T02:13:41.351Z,21.13
2022-11-18T02:16:01.175Z,19.00
2022-11-18T02:18:15.630Z,18.02
2022-11-18T02:20:34.272Z,26.65
2022-11-18T02:23:04.886Z,22.00
2022-11-18T02:25:23.725Z,31.63
2022-11-18T02:28:09.873Z,19.25
2022-11-18T02:30:19.488Z,21.02
2022-11-18T02:32:32.369Z,26.98
2022-11-18T02:34:47.866Z,22.75
2022-11-18T02:37:01.936Z,18.27
2022-11-18T02:39:13.292Z,20.33
2022-11-18T02:41:22.863Z,20.42
2022-11-18T02:43:36.491Z,21.58
2022-11-18T02:45:49.076Z,18.60
2022-11-18T02:47:58.138Z,17.17
2022-11-18T02:50:09.169Z,20.35
2022-11-18T02:52:17.037Z,17.13
2022-11-18T02:54:25.487Z,19.45
2022-11-18T02:56:30.982Z,17.63
2022-11-18T02:58:36.376Z,16.63
2022-11-18T03:00:43.945Z,16.60
2022-11-18T03:05:00.668Z,19.42
2022-11-18T03:07:15.956Z,21.88
2022-11-18T03:09:31.341Z,25.58
2022-11-18T03:11:43.002Z,18.92
2022-11-18T03:14:09.657Z,17.23
2022-11-18T03:16:24.077Z,31.48
2022-11-18T03:18:36.084Z,20.73
2022-11-18T03:20:48.769Z,19.42
2022-11-18T03:22:58.831Z,23.13
2022-11-18T03:25:11.683Z,15.45
2022-11-18T03:27:24.518Z,20.05
2022-11-18T03:29:35.889Z,20.63
2022-11-18T03:31:48.721Z,23.65
2022-11-18T03:34:01.575Z,28.85
2022-11-18T03:36:12.591Z,19.05
2022-11-18T03:38:22.228Z,21.80
2022-11-18T03:40:31.557Z,25.85
2022-11-18T03:42:44.001Z,22.38
2022-11-18T03:44:54.924Z,20.55
2022-11-18T03:47:09.144Z,19.02
2022-11-18T03:49:20.129Z,19.52
2022-11-18T03:51:29.139Z,20.85
2022-11-18T03:53:39.905Z,21.38
2022-11-18T03:55:50.648Z,19.42
2022-11-18T03:58:03.231Z,23.08
2022-11-18T04:00:12.819Z,21.77
2022-11-18T04:02:23.733Z,22.90
2022-11-18T04:04:30.557Z,21.27
2022-11-18T04:06:44.924Z,19.85
2022-11-18T04:08:56.456Z,21.08
2022-11-18T04:11:08.343Z,17.60
2022-11-18T04:13:20.330Z,20.83
2022-11-18T04:15:27.361Z,19.45
2022-11-18T04:17:35.602Z,18.02
2022-11-18T04:19:41.070Z,25.05
2022-11-18T04:21:46.766Z,17.90
2022-11-18T04:23:52.147Z,20.77
2022-11-18T04:25:58.927Z,25.45
2022-11-18T04:28:04.415Z,30.15
2022-11-18T04:30:12.025Z,32.75
2022-11-18T04:34:25.469Z,21.77
2022-11-18T04:38:36.186Z,27.80
2022-11-18T04:40:41.502Z,23.17
2022-11-18T04:42:46.469Z,33.65
2022-11-18T04:44:51.501Z,33.92
2022-11-18T04:46:57.862Z,20.90
2022-11-18T04:49:03.097Z,27.13
2022-11-18T04:51:10.760Z,24.90
2022-11-18T04:53:15.694Z,25.67
2022-11-18T04:55:21.499Z,24.10
2022-11-18T04:57:26.508Z,20.05
2022-11-18T04:59:32.888Z,28.13
2022-11-18T05:01:39.179Z,22.48
2022-11-18T05:03:49.323Z,25.88
2022-11-18T05:05:55.902Z,22.00
2022-11-18T05:08:03.482Z,25.50
2022-11-18T05:12:29.468Z,25.00
2022-11-18T05:14:35.308Z,23.15
2022-11-18T05:16:40.464Z,27.60
2022-11-18T05:18:46.326Z,22.58
2022-11-18T05:20:51.362Z,21.92
2022-11-18T05:22:56.789Z,35.90
2022-11-18T05:25:04.714Z,22.27
2022-11-18T05:29:15.789Z,19.75
2022-11-18T05:31:22.154Z,28.90
2022-11-18T05:33:27.536Z,27.85
2022-11-18T05:35:33.262Z,24.50
2022-11-18T05:37:38.288Z,22.55
2022-11-18T05:39:43.488Z,27.33
2022-11-18T05:42:04.146Z,24.40
2022-11-18T05:44:09.554Z,23.42
2022-11-18T05:46:14.985Z,30.10
2022-11-18T05:48:21.285Z,38.45
2022-11-18T05:50:26.349Z,34.38
2022-11-18T05:52:31.857Z,34.38
2022-11-18T05:54:36.840Z,26.20
2022-11-18T05:56:45.314Z,35.90
2022-11-18T05:58:53.209Z,47.03
2022-11-18T06:03:12.341Z,33.20
2022-11-18T06:05:20.583Z,28.02
2022-11-18T06:07:30.663Z,26.88
2022-11-18T06:09:40.781Z,26.48
2022-11-18T06:11:53.844Z,29.10
2022-11-18T06:14:05.830Z,29.75
2022-11-18T06:16:11.782Z,39.75
2022-11-18T06:18:24.887Z,22.83
2022-11-18T06:20:30.613Z,20.73
2022-11-18T06:22:36.799Z,20.38
2022-11-18T06:24:44.450Z,16.48
2022-11-18T06:26:50.794Z,21.17
2022-11-18T06:28:56.985Z,21.30
2022-11-18T06:31:04.834Z,22.58
2022-11-18T06:35:14.726Z,18.05
2022-11-18T06:37:23.241Z,17.55
2022-11-18T06:39:29.835Z,21.45
2022-11-18T06:41:35.183Z,32.20
2022-11-18T06:43:41.815Z,24.13
2022-11-18T06:46:09.403Z,19.95
2022-11-18T06:48:18.354Z,29.45
2022-11-18T06:50:23.336Z,29.00
2022-11-18T06:52:28.636Z,29.58
2022-11-18T06:54:33.586Z,26.05
2022-11-18T06:56:39.291Z,24.65
2022-11-18T06:58:44.989Z,31.30
2022-11-18T07:00:50.044Z,25.92
2022-11-18T07:02:55.272Z,30.95
2022-11-18T07:05:02.879Z,21.77
2022-11-18T07:07:08.037Z,21.48
2022-11-18T07:09:14.298Z,35.55
2022-11-18T07:11:22.067Z,31.67
2022-11-18T07:13:27.483Z,31.30
2022-11-18T07:15:32.818Z,28.83
2022-11-18T07:17:37.785Z,35.85
2022-11-18T07:19:42.944Z,42.30
2022-11-18T07:21:51.004Z,37.97
2022-11-18T07:23:56.766Z,39.90
2022-11-18T07:26:02.321Z,30.10
2022-11-18T07:28:07.714Z,29.25
2022-11-18T07:30:14.900Z,34.20
2022-11-18T07:32:19.906Z,51.83
2022-11-18T07:34:24.857Z,35.15
2022-11-18T07:36:35.601Z,52.22
2022-11-18T07:38:44.236Z,36.60
2022-11-18T07:40:49.184Z,42.83
2022-11-18T07:42:54.520Z,49.40
2022-11-18T07:45:02.299Z,36.28
2022-11-18T07:47:07.676Z,38.42
2022-11-18T07:49:14.845Z,34.55
2022-11-18T07:51:23.103Z,36.30
2022-11-18T07:53:28.080Z,44.28
2022-11-18T07:55:35.586Z,32.00
2022-11-18T07:57:41.194Z,33.67
2022-11-18T07:59:46.516Z,34.22
2022-11-18T08:01:51.889Z,35.97
2022-11-18T08:03:56.937Z,34.92
2022-11-18T08:06:02.645Z,38.78
2022-11-18T08:08:08.416Z,40.42
2022-11-18T08:10:13.644Z,41.88
2022-11-18T08:12:21.242Z,48.17
2022-11-18T08:16:32.175Z,44.20
2022-11-18T08:18:37.510Z,37.60
2022-11-18T08:20:42.536Z,38.38
2022-11-18T08:22:47.533Z,35.20
2022-11-18T08:24:52.843Z,44.97
2022-11-18T08:26:57.872Z,40.03
2022-11-18T08:29:06.056Z,31.98
2022-11-18T08:31:15.730Z,48.72
2022-11-18T08:33:21.126Z,47.58
2022-11-18T08:35:26.053Z,37.65
2022-11-18T08:37:31.460Z,60.40
2022-11-18T08:39:36.985Z,53.47
2022-11-18T08:41:47.095Z,47.53
2022-11-18T08:43:52.357Z,47.13
2022-11-18T08:46:00.722Z,46.28
2022-11-18T08:48:05.712Z,29.05
2022-11-18T08:50:14.503Z,27.00
2022-11-18T08:52:19.549Z,20.40
2022-11-18T08:54:24.906Z,22.23
2022-11-18T08:56:29.897Z,24.77
2022-11-18T08:58:35.569Z,27.50
2022-11-18T09:00:41.164Z,32.60
2022-11-18T09:02:49.120Z,30.30
2022-11-18T09:04:56.217Z,29.13
2022-11-18T09:07:01.611Z,33.20
2022-11-18T09:09:06.851Z,26.52
2022-11-18T09:11:14.396Z,20.75
2022-11-18T09:13:47.544Z,22.83
2022-11-18T09:15:45.107Z,30.63
2022-11-18T09:17:53.397Z,23.38
2022-11-18T09:19:58.327Z,19.40
2022-11-18T09:22:03.557Z,22.33
2022-11-18T09:24:11.586Z,21.00
2022-11-18T09:26:19.221Z,25.50
2022-11-18T09:28:27.643Z,23.13
2022-11-18T09:30:32.546Z,26.65
2022-11-18T09:32:37.980Z,29.02
2022-11-18T09:34:45.984Z,19.08
2022-11-18T09:36:51.422Z,19.83
2022-11-18T09:38:56.732Z,17.33
2022-11-18T09:41:10.808Z,20.00
2022-11-18T09:43:25.231Z,15.00
2022-11-18T09:45:40.560Z,18.00
2022-11-18T09:47:46.026Z,15.98
2022-11-18T09:49:54.577Z,18.83
2022-11-18T09:52:04.957Z,18.23
2022-11-18T09:54:16.280Z,14.10
2022-11-18T09:56:21.883Z,17.48
2022-11-18T09:58:35.594Z,17.92
2022-11-18T10:00:46.294Z,16.83
2022-11-18T10:03:03.283Z,20.77
2022-11-18T10:05:20.814Z,19.48
2022-11-18T10:09:43.058Z,20.60
2022-11-18T10:12:03.716Z,18.40
2022-11-18T10:14:31.366Z,22.70
2022-11-18T10:16:50.871Z,19.65
2022-11-18T10:19:08.144Z,22.83
2022-11-18T10:21:26.429Z,18.05
2022-11-18T10:23:37.488Z,22.40
2022-11-18T10:25:42.514Z,17.67
2022-11-18T10:27:49.780Z,22.75
2022-11-18T10:29:59.753Z,19.98
2022-11-18T10:32:07.162Z,17.63
2022-11-18T10:34:16.895Z,14.20
2022-11-18T10:36:33.215Z,12.88
2022-11-18T10:38:38.555Z,13.80
2022-11-18T10:40:59.454Z,12.63
2022-11-18T10:43:04.501Z,10.57
2022-11-18T10:45:20.283Z,11.32
2022-11-18T10:47:30.148Z,19.08
2022-11-18T10:49:41.990Z,12.63
2022-11-18T10:52:01.500Z,12.68
2022-11-18T10:54:12.787Z,19.63
2022-11-18T10:56:18.632Z,15.20
2022-11-18T10:58:24.324Z,14.27
2022-11-18T11:00:42.898Z,12.20
2022-11-18T11:02:47.935Z,14.90
2022-11-18T11:04:54.944Z,10.65
2022-11-18T11:07:26.668Z,17.00
2022-11-18T11:09:33.076Z,16.83
2022-11-18T11:11:43.387Z,17.15
2022-11-18T11:13:51.461Z,15.60
2022-11-18T11:16:02.016Z,14.85
2022-11-18T11:18:27.142Z,15.88
2022-11-18T11:20:32.613Z,14.40
2022-11-18T11:22:40.186Z,15.27
2022-11-18T11:30:08.673Z,14.55
2022-11-18T11:32:23.254Z,10.18
2022-11-18T11:34:38.009Z,15.13
2022-11-18T11:36:53.510Z,13.25
2022-11-18T11:39:23.268Z,12.75
2022-11-18T11:41:32.845Z,12.50
2022-11-18T11:43:50.255Z,13.23
2022-11-18T11:46:22.484Z,13.52
2022-11-18T11:48:45.316Z,12.15
2022-11-18T11:51:04.242Z,15.98
2022-11-18T11:53:44.428Z,11.63
2022-11-18T12:00:23.576Z,11.93
2022-11-18T12:02:53.212Z,13.75
2022-11-18T12:05:05.111Z,11.70
2022-11-18T12:07:18.673Z,11.60
2022-11-18T12:09:39.669Z,13.88
2022-11-18T12:11:56.057Z,10.65
2022-11-18T12:14:08.019Z,11.45
2022-11-18T12:16:29.762Z,10.15
2022-11-18T12:18:43.085Z,10.23
2022-11-18T12:20:50.318Z,13.70
2022-11-18T12:23:14.423Z,9.85
2022-11-18T12:25:54.692Z,10.27
2022-11-18T12:28:03.365Z,10.68
2022-11-18T12:30:21.791Z,7.53
2022-11-18T12:32:42.602Z,10.50
2022-11-18T12:34:48.170Z,7.55
2022-11-18T12:36:53.463Z,8.00
2022-11-18T12:39:00.274Z,9.30
2022-11-18T12:41:26.303Z,9.93
2022-11-18T12:44:10.845Z,10.80
2022-11-18T12:47:03.957Z,8.00
2022-11-18T12:50:03.022Z,9.13
2022-11-18T12:52:32.440Z,5.97
2022-11-18T12:54:41.439Z,7.30
2022-11-18T12:56:51.003Z,6.22
2022-11-18T12:58:58.358Z,7.47
2022-11-18T13:01:10.543Z,22.38
2022-11-18T13:03:31.022Z,14.15
2022-11-18T13:05:38.690Z,10.77
2022-11-18T13:08:02.685Z,9.63
2022-11-18T13:10:25.912Z,9.02
2022-11-18T13:12:32.848Z,6.53
2022-11-18T13:14:55.140Z,8.73
2022-11-18T13:17:12.833Z,8.20
2022-11-18T13:19:27.726Z,11.25
2022-11-18T13:21:45.646Z,9.02
2022-11-18T13:24:00.650Z,9.55
2022-11-18T13:26:09.726Z,11.07
2022-11-18T13:28:30.174Z,6.57
2022-11-18T13:30:39.747Z,8.20
2022-11-18T13:32:48.118Z,9.10
2022-11-18T13:34:59.000Z,13.68
2022-11-18T13:37:04.274Z,9.60
2022-11-18T13:39:15.858Z,9.70
2022-11-18T13:41:32.577Z,6.88
2022-11-18T13:43:38.638Z,10.35
2022-11-18T13:45:44.045Z,10.77
2022-11-18T13:47:53.829Z,8.35
2022-11-18T13:50:14.863Z,10.23
2022-11-18T13:52:26.750Z,13.00
2022-11-18T13:54:32.652Z,14.43
2022-11-18T13:56:38.741Z,11.68
2022-11-18T14:01:21.284Z,12.88
2022-11-18T14:03:32.618Z,37.05
2022-11-18T14:05:42.867Z,15.00
2022-11-18T14:08:05.061Z,24.92
2022-11-18T14:10:17.546Z,25.98
2022-11-18T14:12:28.949Z,18.08
2022-11-18T14:14:36.481Z,21.15
2022-11-18T14:16:43.643Z,24.98
2022-11-18T14:18:51.677Z,27.90
2022-11-18T14:20:59.865Z,25.45
2022-11-18T14:23:10.568Z,34.47
2022-11-18T14:25:22.931Z,17.88
2022-11-18T14:27:41.304Z,18.67
2022-11-18T14:29:52.718Z,19.58
2022-11-18T14:32:16.949Z,13.18
2022-11-18T14:34:27.436Z,13.10
2022-11-18T14:36:35.166Z,11.00
2022-11-18T14:39:25.391Z,10.82
2022-11-18T14:41:41.054Z,11.13
2022-11-18T14:43:48.892Z,8.57
2022-11-18T14:45:55.907Z,10.25
2022-11-18T14:48:01.217Z,9.48
2022-11-18T14:50:06.623Z,9.23
2022-11-18T14:52:15.226Z,9.32
2022-11-18T14:54:26.449Z,10.73
2022-11-18T14:56:34.595Z,14.52
2022-11-18T14:58:39.697Z,14.57
2022-11-18T15:00:45.860Z,11.57
2022-11-18T15:02:51.010Z,8.48
2022-11-18T15:04:57.945Z,13.15
2022-11-18T15:07:03.054Z,18.77
2022-11-18T15:09:12.100Z,11.63
2022-11-18T15:11:19.260Z,8.20
2022-11-18T15:13:24.301Z,10.65
2022-11-18T15:15:30.304Z,15.98
2022-11-18T15:17:35.888Z,15.35
2022-11-18T15:19:41.799Z,7.50
2022-11-18T15:21:46.920Z,8.25
2022-11-18T15:23:52.159Z,14.07
2022-11-18T15:26:01.334Z,14.45
2022-11-18T15:28:06.810Z,11.77
2022-11-18T15:30:16.133Z,10.50
2022-11-18T15:32:21.101Z,7.95
2022-11-18T15:34:26.361Z,7.32
2022-11-18T15:36:31.340Z,7.22
2022-11-18T15:38:36.431Z,8.65
2022-11-18T15:40:41.420Z,10.77
2022-11-18T15:42:52.200Z,11.63
2022-11-18T15:44:57.389Z,10.15
2022-11-18T15:47:02.765Z,10.65
2022-11-18T15:49:09.838Z,12.45
2022-11-18T15:51:15.457Z,11.82
2022-11-18T15:53:20.568Z,14.80
2022-11-18T15:55:25.820Z,14.95
2022-11-18T15:57:30.769Z,12.02
2022-11-18T15:59:38.295Z,13.68
2022-11-18T16:01:45.800Z,12.13
2022-11-18T16:03:51.354Z,13.50
2022-11-18T16:05:56.304Z,15.45
2022-11-18T16:08:01.391Z,11.15
2022-11-18T16:10:19.540Z,10.60
2022-11-18T16:12:37.069Z,15.55
2022-11-18T16:15:04.587Z,16.35
2022-11-18T16:17:09.597Z,16.23
2022-11-18T16:19:17.079Z,8.80
2022-11-18T16:21:22.033Z,10.70
2022-11-18T16:23:27.346Z,9.63
2022-11-18T16:25:35.208Z,11.20
2022-11-18T16:27:40.429Z,10.48
2022-11-18T16:29:48.141Z,14.02
2022-11-18T16:31:52.405Z,13.20
2022-11-18T16:33:57.666Z,9.65
2022-11-18T16:36:02.917Z,10.38
2022-11-18T16:38:11.232Z,13.25
2022-11-18T16:40:16.467Z,10.50
2022-11-18T16:42:21.433Z,9.13
2022-11-18T16:44:26.625Z,11.80
2022-11-18T16:46:36.495Z,9.27
2022-11-18T16:48:41.625Z,13.60
2022-11-18T16:50:46.757Z,13.02
2022-11-18T16:52:51.846Z,8.70
2022-11-18T16:54:56.774Z,10.30
2022-11-18T16:57:02.704Z,10.38
2022-11-18T16:59:10.586Z,9.02
2022-11-18T17:01:20.883Z,8.98
2022-11-18T17:03:30.023Z,9.13
2022-11-18T17:05:36.895Z,9.95
2022-11-18T17:07:42.011Z,12.67
2022-11-18T17:09:47.047Z,15.07
2022-11-18T17:11:58.532Z,14.18
2022-11-18T17:14:03.650Z,10.13
2022-11-18T17:16:11.092Z,10.40
2022-11-18T17:18:16.037Z,8.63
2022-11-18T17:20:23.556Z,8.63
2022-11-18T17:22:28.956Z,10.93
2022-11-18T17:24:34.711Z,9.88
2022-11-18T17:26:39.683Z,11.27
2022-11-18T17:28:45.866Z,11.93
2022-11-18T17:30:51.026Z,9.85
2022-11-18T17:32:56.029Z,10.60
2022-11-18T17:35:00.963Z,8.27
2022-11-18T17:37:08.616Z,6.35
2022-11-18T17:39:16.012Z,6.72
2022-11-18T17:41:36.444Z,6.43
2022-11-18T17:43:41.339Z,5.00
2022-11-18T17:45:46.417Z,6.75
2022-11-18T17:47:51.595Z,5.45
2022-11-18T17:49:56.671Z,6.20
2022-11-18T17:52:01.626Z,4.93
2022-11-18T17:54:10.684Z,6.03
2022-11-18T17:56:15.648Z,7.45
2022-11-18T17:58:20.638Z,5.20
2022-11-18T18:00:26.437Z,5.35
2022-11-18T18:02:31.424Z,6.90
2022-11-18T18:04:36.973Z,7.45
2022-11-18T18:06:43.064Z,5.47
2022-11-18T18:08:48.151Z,6.38
2022-11-18T18:10:55.688Z,5.47
2022-11-18T18:13:13.140Z,6.88
2022-11-18T18:15:18.751Z,5.95
2022-11-18T18:17:23.724Z,5.03
2022-11-18T18:19:28.697Z,5.70
2022-11-18T18:21:35.702Z,4.88
2022-11-18T18:23:40.752Z,5.20
2022-11-18T18:25:48.655Z,5.53
2022-11-18T18:27:56.212Z,4.45
2022-11-18T18:30:01.693Z,3.70
2022-11-18T18:32:07.449Z,4.85
2022-11-18T18:34:12.439Z,4.90
2022-11-18T18:36:20.225Z,6.18
2022-11-18T18:38:25.147Z,4.57
2022-11-18T18:40:30.759Z,5.88
2022-11-18T18:42:36.140Z,7.97
2022-11-18T18:44:56.221Z,5.18
2022-11-18T18:47:01.525Z,5.07
2022-11-18T18:49:09.368Z,4.47
2022-11-18T18:51:14.680Z,6.75
2022-11-18T18:53:19.646Z,5.53
2022-11-18T18:55:24.968Z,6.55
2022-11-18T18:57:31.240Z,4.82
2022-11-18T18:59:36.629Z,15.10
2022-11-18T19:01:44.475Z,5.93
2022-11-18T19:03:50.799Z,5.07
2022-11-18T19:06:27.286Z,6.63
2022-11-18T19:08:21.137Z,4.25
2022-11-18T19:10:26.987Z,4.95
2022-11-18T19:12:45.816Z,4.15
2022-11-18T19:14:51.245Z,4.78
2022-11-18T19:17:02.482Z,4.75
2022-11-18T19:19:16.013Z,5.00
2022-11-18T19:21:18.769Z,4.43
2022-11-18T19:23:25.192Z,4.68
2022-11-18T19:25:30.555Z,5.35
2022-11-18T19:27:39.190Z,5.10
2022-11-18T19:29:44.766Z,6.25
2022-11-18T19:31:49.755Z,4.32
2022-11-18T19:33:57.497Z,5.47
2022-11-18T19:36:04.991Z,7.18
2022-11-18T19:38:11.226Z,5.00
2022-11-18T19:40:17.420Z,5.00
2022-11-18T19:42:22.831Z,4.80
2022-11-18T19:44:27.809Z,4.85
2022-11-18T19:46:33.126Z,6.35
2022-11-18T19:48:38.510Z,5.43
2022-11-18T19:50:46.586Z,6.50
2022-11-18T19:52:51.551Z,5.75
2022-11-18T19:54:58.369Z,6.47
2022-11-18T19:57:03.990Z,5.72
2022-11-18T19:59:09.783Z,5.22
2022-11-18T20:01:19.350Z,6.72
2022-11-18T20:03:24.554Z,5.72
2022-11-18T20:05:47.150Z,5.35
2022-11-18T20:07:57.815Z,5.68
2022-11-18T20:10:02.720Z,7.10
2022-11-18T20:12:10.063Z,5.55
2022-11-18T20:14:16.136Z,5.93
2022-11-18T20:16:23.667Z,13.10
2022-11-18T20:20:33.973Z,4.85
2022-11-18T20:22:38.948Z,11.55
2022-11-18T20:24:46.569Z,6.78
2022-11-18T20:26:51.585Z,6.72
2022-11-18T20:28:57.865Z,9.13
2022-11-18T20:31:03.790Z,6.53
2022-11-18T20:33:08.702Z,7.75
2022-11-18T20:35:14.474Z,6.70
2022-11-18T20:37:21.521Z,6.72
2022-11-18T20:39:30.956Z,8.68
2022-11-18T20:41:39.203Z,10.07
2022-11-18T20:43:43.808Z,7.40
2022-11-18T20:45:56.284Z,6.47
2022-11-18T20:48:02.348Z,5.85
2022-11-18T20:50:09.084Z,6.13
2022-11-18T20:52:14.085Z,6.45
2022-11-18T20:54:19.561Z,6.30
2022-11-18T20:56:28.144Z,5.95
2022-11-18T20:58:36.977Z,7.57
2022-11-18T21:00:42.074Z,6.13
2022-11-18T21:02:47.747Z,7.65
2022-11-18T21:04:52.751Z,9.55
2022-11-18T21:07:01.896Z,6.82
2022-11-18T21:09:09.602Z,8.20
2022-11-18T21:11:16.423Z,7.45
2022-11-18T21:13:34.173Z,7.20
2022-11-18T21:17:46.707Z,9.35
2022-11-18T21:19:51.902Z,7.75
2022-11-18T21:21:55.812Z,9.15
2022-11-18T21:24:04.032Z,10.10
2022-11-18T21:26:13.269Z,10.65
2022-11-18T21:28:18.908Z,9.60
2022-11-18T21:30:24.005Z,10.85
2022-11-18T21:32:31.915Z,11.10
2022-11-18T21:34:37.481Z,9.73
2022-11-18T21:36:46.912Z,10.02
2022-11-18T21:38:54.708Z,10.38
2022-11-18T21:41:06.388Z,13.15
2022-11-18T21:43:12.033Z,11.75
2022-11-18T21:45:18.226Z,12.15
2022-11-18T21:47:23.713Z,14.25
2022-11-18T21:49:31.718Z,12.88
2022-11-18T21:53:44.005Z,13.00
2022-11-18T21:55:49.219Z,13.43
2022-11-18T21:57:58.650Z,12.10
2022-11-18T22:00:07.829Z,13.65
2022-11-18T22:02:17.271Z,13.50
2022-11-18T22:04:34.639Z,15.85
2022-11-18T22:08:48.023Z,12.50
2022-11-18T22:10:53.415Z,16.73
2022-11-18T22:13:02.046Z,16.67
2022-11-18T22:15:11.292Z,13.77
2022-11-18T22:17:16.554Z,16.40
2022-11-18T22:19:22.468Z,14.85
2022-11-18T22:21:28.129Z,16.17
2022-11-18T22:23:37.260Z,16.05
2022-11-18T22:25:43.386Z,16.15
2022-11-18T22:27:48.684Z,14.55
2022-11-18T22:29:55.259Z,16.92
2022-11-18T22:32:00.816Z,17.10
2022-11-18T22:34:07.420Z,17.15
2022-11-18T22:36:17.724Z,17.95
2022-11-18T22:38:22.824Z,17.23
2022-11-18T22:40:30.765Z,18.75
2022-11-18T22:42:48.475Z,18.00
2022-11-18T22:46:59.553Z,18.83
2022-11-18T22:49:04.993Z,21.90
2022-11-18T22:51:10.083Z,19.50
2022-11-18T22:53:15.891Z,22.23
2022-11-18T22:55:22.196Z,20.17
2022-11-18T22:57:34.970Z,20.58
2022-11-18T22:59:40.489Z,20.92
2022-11-18T23:01:45.697Z,19.60
2022-11-18T23:03:51.510Z,22.23
2022-11-18T23:06:00.268Z,20.70
2022-11-18T23:08:05.368Z,21.38
2022-11-18T23:10:12.258Z,22.50
2022-11-18T23:12:30.268Z,20.88
2022-11-18T23:16:45.248Z,19.25
2022-11-18T23:18:51.196Z,19.08
2022-11-18T23:21:01.891Z,20.20
2022-11-18T23:23:07.437Z,19.92
2022-11-18T23:25:12.846Z,21.35
2022-11-18T23:27:18.253Z,22.35
2022-11-18T23:29:25.228Z,22.83
2022-11-18T23:31:33.533Z,21.00
2022-11-18T23:36:46.461Z,22.20
2022-11-18T23:38:51.971Z,22.60
2022-11-18T23:40:58.666Z,22.85
2022-11-18T23:43:04.292Z,22.30
2022-11-18T23:45:11.598Z,20.02
2022-11-18T23:47:19.643Z,20.48
2022-11-18T23:49:24.827Z,22.17
2022-11-18T23:51:30.121Z,20.63
2022-11-18T23:53:37.029Z,23.55
2022-11-18T23:55:42.096Z,24.80
2022-11-18T23:57:47.845Z,21.65
2022-11-18T23:59:52.961Z,21.42
